createdAt,value
2023-04-17T00:00:35.815Z,79.11
2023-04-17T00:03:04.516Z,79.24
2023-04-17T00:05:34.026Z,79.29
2023-04-17T00:08:04.850Z,79.48
2023-04-17T00:10:33.331Z,79.52
2023-04-17T00:13:03.859Z,79.46
2023-04-17T00:15:33.268Z,79.34
2023-04-17T00:18:02.709Z,79.36
2023-04-17T00:20:31.378Z,79.38
2023-04-17T00:23:00.045Z,79.47
2023-04-17T00:25:28.424Z,79.34
2023-04-17T00:27:57.418Z,79.22
2023-04-17T00:30:25.908Z,79.14
2023-04-17T00:32:55.782Z,79.09
2023-04-17T00:35:24.813Z,79.09
2023-04-17T00:37:53.194Z,79.17
2023-04-17T00:40:21.885Z,79.08
2023-04-17T00:42:53.541Z,79.26
2023-04-17T00:45:22.507Z,79.22
2023-04-17T00:47:51.050Z,79.36
2023-04-17T00:50:19.323Z,79.50
2023-04-17T00:52:48.799Z,79.38
2023-04-17T00:55:17.617Z,79.37
2023-04-17T00:57:46.381Z,79.48
2023-04-17T01:00:18.493Z,79.56
2023-04-17T01:02:47.574Z,79.65
2023-04-17T01:05:16.431Z,79.78
2023-04-17T01:07:45.236Z,79.97
2023-04-17T01:10:13.601Z,80.07
2023-04-17T01:12:46.819Z,80.13
2023-04-17T01:15:15.785Z,80.26
2023-04-17T01:17:44.211Z,80.32
2023-04-17T01:20:13.810Z,80.55
2023-04-17T01:22:43.285Z,80.83
2023-04-17T01:25:11.657Z,80.88
2023-04-17T01:27:42.394Z,80.97
2023-04-17T01:30:12.149Z,81.10
2023-04-17T01:32:50.433Z,81.16
2023-04-17T01:35:19.004Z,81.26
2023-04-17T01:37:49.126Z,81.22
2023-04-17T01:40:18.733Z,81.49
2023-04-17T01:42:47.212Z,81.55
2023-04-17T01:45:18.154Z,81.44
2023-04-17T01:47:47.624Z,81.24
2023-04-17T01:50:16.245Z,81.11
2023-04-17T01:52:45.549Z,81.15
2023-04-17T01:55:14.432Z,81.26
2023-04-17T01:57:42.933Z,81.21
2023-04-17T02:00:11.850Z,81.25
2023-04-17T02:02:44.665Z,81.51
2023-04-17T02:05:13.176Z,82.05
2023-04-17T02:07:42.990Z,82.13
2023-04-17T02:10:11.784Z,82.15
2023-04-17T02:12:40.892Z,82.35
2023-04-17T02:15:09.948Z,82.33
2023-04-17T02:17:38.621Z,82.32
2023-04-17T02:20:07.766Z,82.26
2023-04-17T02:22:36.957Z,82.31
2023-04-17T02:25:06.053Z,82.51
2023-04-17T02:27:34.536Z,82.56
2023-04-17T02:30:04.038Z,82.44
2023-04-17T02:32:33.966Z,82.41
2023-04-17T02:35:02.843Z,82.59
2023-04-17T02:37:31.739Z,82.58
2023-04-17T02:40:00.214Z,82.42
2023-04-17T02:42:28.909Z,82.47
2023-04-17T02:44:57.291Z,82.62
2023-04-17T02:47:25.981Z,82.44
2023-04-17T02:49:55.992Z,82.31
2023-04-17T02:52:24.373Z,82.23
2023-04-17T02:54:52.900Z,82.28
2023-04-17T02:57:21.335Z,82.56
2023-04-17T02:59:50.527Z,82.42
2023-04-17T03:02:22.352Z,82.45
2023-04-17T03:04:51.535Z,82.50
2023-04-17T03:07:20.903Z,82.75
2023-04-17T03:09:49.593Z,82.73
2023-04-17T03:12:18.579Z,82.81
2023-04-17T03:14:47.064Z,82.96
2023-04-17T03:17:15.643Z,83.04
2023-04-17T03:19:44.146Z,83.06
2023-04-17T03:22:13.435Z,83.17
2023-04-17T03:24:42.318Z,83.36
2023-04-17T03:27:13.775Z,83.31
2023-04-17T03:29:43.179Z,83.26
2023-04-17T03:32:11.760Z,83.20
2023-04-17T03:34:40.550Z,83.28
2023-04-17T03:37:09.029Z,83.31
2023-04-17T03:39:37.523Z,83.31
2023-04-17T03:42:06.811Z,83.24
2023-04-17T03:44:35.397Z,83.38
2023-04-17T03:47:03.777Z,83.38
2023-04-17T03:49:32.156Z,83.18
2023-04-17T03:52:03.913Z,83.24
2023-04-17T03:54:35.954Z,83.42
2023-04-17T03:57:06.202Z,83.49
2023-04-17T03:59:34.885Z,83.22
2023-04-17T04:02:03.372Z,83.16
2023-04-17T04:04:35.409Z,83.15
2023-04-17T04:07:08.623Z,83.01
2023-04-17T04:09:37.312Z,82.93
2023-04-17T04:12:06.104Z,82.91
2023-04-17T04:14:41.784Z,82.97
2023-04-17T04:17:11.052Z,82.79
2023-04-17T04:19:39.731Z,82.72
2023-04-17T04:22:09.033Z,82.68
2023-04-17T04:24:43.048Z,82.81
2023-04-17T04:27:14.358Z,82.69
2023-04-17T04:29:48.918Z,82.61
2023-04-17T04:32:20.930Z,82.50
2023-04-17T04:34:49.464Z,82.58
2023-04-17T04:37:22.062Z,82.57
2023-04-17T04:39:54.402Z,82.38
2023-04-17T04:42:24.234Z,82.05
2023-04-17T04:45:05.110Z,81.88
2023-04-17T04:47:34.003Z,81.60
2023-04-17T04:50:02.664Z,81.51
2023-04-17T04:52:32.187Z,81.52
2023-04-17T04:55:02.151Z,81.32
2023-04-17T04:57:31.714Z,81.24
2023-04-17T05:00:02.026Z,81.24
2023-04-17T05:02:38.002Z,80.90
2023-04-17T05:05:09.810Z,80.64
2023-04-17T05:07:38.650Z,80.50
2023-04-17T05:10:46.681Z,80.30
2023-04-17T05:13:15.958Z,79.94
2023-04-17T05:15:44.548Z,80.01
2023-04-17T05:18:13.639Z,79.98
2023-04-17T05:20:42.528Z,79.98
2023-04-17T05:23:11.017Z,79.93
2023-04-17T05:25:39.394Z,79.55
2023-04-17T05:28:08.287Z,79.35
2023-04-17T05:30:36.714Z,79.41
2023-04-17T05:33:12.845Z,79.49
2023-04-17T05:35:56.003Z,79.13
2023-04-17T05:38:25.672Z,78.87
2023-04-17T05:40:54.256Z,78.74
2023-04-17T05:43:23.244Z,78.58
2023-04-17T05:45:53.961Z,78.57
2023-04-17T05:48:22.322Z,78.44
2023-04-17T05:50:50.941Z,78.47
2023-04-17T05:53:20.251Z,78.44
2023-04-17T05:55:54.871Z,78.13
2023-04-17T05:58:24.489Z,78.09
2023-04-17T06:00:57.176Z,78.03
2023-04-17T06:03:28.161Z,78.38
2023-04-17T06:06:05.817Z,78.44
2023-04-17T06:08:34.421Z,78.39
2023-04-17T06:11:02.689Z,78.41
2023-04-17T06:13:31.556Z,77.94
2023-04-17T06:16:00.147Z,78.00
2023-04-17T06:18:28.521Z,77.89
2023-04-17T06:20:57.100Z,77.84
2023-04-17T06:23:26.411Z,77.66
2023-04-17T06:25:54.731Z,77.44
2023-04-17T06:28:23.267Z,77.46
2023-04-17T06:30:53.087Z,77.37
2023-04-17T06:33:21.567Z,77.43
2023-04-17T06:35:50.148Z,77.26
2023-04-17T06:38:25.415Z,76.75
2023-04-17T06:40:53.974Z,76.78
2023-04-17T06:43:22.764Z,77.01
2023-04-17T06:45:51.327Z,76.93
2023-04-17T06:48:19.932Z,76.75
2023-04-17T06:50:48.688Z,76.87
2023-04-17T06:53:17.099Z,76.36
2023-04-17T06:55:45.690Z,75.94
2023-04-17T06:58:14.269Z,74.84
2023-04-17T07:00:42.643Z,74.19
2023-04-17T07:03:11.639Z,73.84
2023-04-17T07:05:40.047Z,73.70
2023-04-17T07:08:08.603Z,72.62
2023-04-17T07:10:37.695Z,72.83
2023-04-17T07:13:06.305Z,72.78
2023-04-17T07:15:34.788Z,71.91
2023-04-17T07:18:03.428Z,71.27
2023-04-17T07:20:31.942Z,70.79
2023-04-17T07:23:00.313Z,70.20
2023-04-17T07:25:28.902Z,69.71
2023-04-17T07:27:57.685Z,69.32
2023-04-17T07:30:26.403Z,67.97
2023-04-17T07:32:55.094Z,67.96
2023-04-17T07:35:23.750Z,66.92
2023-04-17T07:37:52.231Z,66.56
2023-04-17T07:40:20.604Z,66.36
2023-04-17T07:42:49.186Z,66.30
2023-04-17T07:45:17.668Z,66.41
2023-04-17T07:47:46.730Z,65.57
2023-04-17T07:50:15.763Z,63.45
2023-04-17T07:52:44.136Z,63.70
2023-04-17T07:55:12.517Z,63.36
2023-04-17T07:57:43.968Z,61.45
2023-04-17T08:00:16.474Z,60.49
2023-04-17T08:02:45.029Z,57.79
2023-04-17T08:05:13.548Z,57.38
2023-04-17T08:07:43.634Z,57.18
2023-04-17T08:10:12.012Z,56.31
2023-04-17T08:12:40.587Z,56.98
2023-04-17T08:15:09.825Z,56.28
2023-04-17T08:17:38.577Z,55.50
2023-04-17T08:20:11.654Z,54.76
2023-04-17T08:22:41.222Z,54.90
2023-04-17T08:25:10.473Z,53.95
2023-04-17T08:27:42.627Z,52.94
2023-04-17T08:30:13.868Z,52.44
2023-04-17T08:32:46.762Z,51.72
2023-04-17T08:35:15.771Z,53.02
2023-04-17T08:37:47.224Z,52.95
2023-04-17T08:40:17.442Z,52.21
2023-04-17T08:42:48.251Z,51.95
2023-04-17T08:45:17.592Z,51.12
2023-04-17T08:47:47.430Z,49.69
2023-04-17T08:50:19.563Z,50.63
2023-04-17T08:52:49.177Z,50.63
2023-04-17T08:55:22.472Z,49.02
2023-04-17T08:58:04.287Z,48.00
2023-04-17T09:00:51.282Z,47.83
2023-04-17T09:03:20.089Z,46.75
2023-04-17T09:05:49.399Z,47.92
2023-04-17T09:08:22.448Z,48.09
2023-04-17T09:10:52.100Z,48.50
2023-04-17T09:13:25.562Z,46.08
2023-04-17T09:16:11.113Z,45.28
2023-04-17T09:18:40.473Z,44.62
2023-04-17T09:21:09.244Z,44.89
2023-04-17T09:23:55.652Z,44.01
2023-04-17T09:26:27.632Z,44.37
2023-04-17T09:29:12.356Z,44.83
2023-04-17T09:31:43.073Z,44.65
2023-04-17T09:34:12.898Z,44.08
2023-04-17T09:36:42.303Z,44.25
2023-04-17T09:39:19.349Z,44.35
2023-04-17T09:41:47.783Z,44.85
2023-04-17T09:44:25.888Z,45.89
2023-04-17T09:46:54.602Z,45.14
2023-04-17T09:49:30.543Z,44.30
2023-04-17T09:51:58.921Z,45.35
2023-04-17T09:54:31.607Z,44.77
2023-04-17T09:57:00.207Z,43.52
2023-04-17T09:59:28.828Z,43.75
2023-04-17T10:01:57.533Z,44.32
2023-04-17T10:04:26.395Z,44.76
2023-04-17T10:06:56.972Z,45.33
2023-04-17T10:09:25.360Z,45.31
2023-04-17T10:11:54.148Z,44.61
2023-04-17T10:14:31.004Z,44.80
2023-04-17T10:16:59.291Z,42.60
2023-04-17T10:19:36.805Z,41.81
2023-04-17T10:22:20.501Z,41.99
2023-04-17T10:24:52.183Z,40.81
2023-04-17T10:27:27.274Z,40.94
2023-04-17T10:30:02.884Z,39.16
2023-04-17T10:32:32.154Z,37.70
2023-04-17T10:35:02.251Z,37.47
2023-04-17T10:37:51.891Z,37.23
2023-04-17T10:40:29.615Z,37.36
2023-04-17T10:43:08.590Z,38.57
2023-04-17T10:46:03.564Z,36.88
2023-04-17T10:48:39.369Z,35.92
2023-04-17T10:51:29.436Z,36.47
2023-04-17T10:53:58.226Z,36.82
2023-04-17T10:56:28.064Z,37.26
2023-04-17T10:59:00.315Z,38.70
2023-04-17T11:01:32.462Z,39.28
2023-04-17T11:04:01.025Z,39.77
2023-04-17T11:06:32.061Z,39.30
2023-04-17T11:09:00.517Z,39.95
2023-04-17T11:11:40.447Z,40.30
2023-04-17T11:14:15.783Z,40.20
2023-04-17T11:16:46.224Z,40.47
2023-04-17T11:19:21.705Z,41.23
2023-04-17T11:21:54.211Z,41.18
2023-04-17T11:24:26.936Z,41.13
2023-04-17T11:26:56.833Z,40.51
2023-04-17T11:29:25.623Z,41.05
2023-04-17T11:31:55.046Z,40.88
2023-04-17T11:34:23.608Z,40.38
2023-04-17T11:36:56.898Z,40.59
2023-04-17T11:39:26.675Z,39.64
2023-04-17T11:41:57.328Z,40.39
2023-04-17T11:44:26.142Z,40.94
2023-04-17T11:46:56.024Z,41.22
2023-04-17T11:49:31.300Z,41.34
2023-04-17T11:52:00.801Z,41.69
2023-04-17T11:54:30.840Z,42.18
2023-04-17T11:57:02.719Z,41.79
2023-04-17T11:59:38.665Z,42.75
2023-04-17T12:02:07.692Z,42.61
2023-04-17T12:04:37.848Z,42.91
2023-04-17T12:07:07.574Z,42.77
2023-04-17T12:09:36.774Z,43.07
2023-04-17T12:12:06.685Z,43.60
2023-04-17T12:14:36.297Z,43.05
2023-04-17T12:17:04.670Z,43.17
2023-04-17T12:19:34.085Z,42.50
2023-04-17T12:22:02.567Z,43.04
2023-04-17T12:24:31.061Z,42.75
2023-04-17T12:27:02.059Z,42.38
2023-04-17T12:29:43.278Z,42.49
2023-04-17T12:32:13.119Z,42.42
2023-04-17T12:34:41.557Z,42.81
2023-04-17T12:37:10.240Z,41.41
2023-04-17T12:39:38.831Z,41.17
2023-04-17T12:42:07.206Z,41.27
2023-04-17T12:44:35.907Z,41.60
2023-04-17T12:47:04.371Z,41.81
2023-04-17T12:49:33.176Z,41.95
2023-04-17T12:52:03.557Z,41.24
2023-04-17T12:54:33.352Z,41.65
2023-04-17T12:57:02.589Z,40.45
2023-04-17T12:59:32.314Z,39.99
2023-04-17T13:02:01.454Z,40.18
2023-04-17T13:04:30.344Z,41.18
2023-04-17T13:06:58.890Z,40.50
2023-04-17T13:09:27.265Z,40.40
2023-04-17T13:11:55.644Z,40.43
2023-04-17T13:14:24.232Z,40.52
2023-04-17T13:16:52.831Z,40.14
2023-04-17T13:19:21.420Z,40.62
2023-04-17T13:21:51.521Z,40.27
2023-04-17T13:24:19.901Z,41.33
2023-04-17T13:26:48.379Z,41.62
2023-04-17T13:29:19.277Z,41.01
2023-04-17T13:31:48.937Z,40.12
2023-04-17T13:34:17.412Z,40.46
2023-04-17T13:36:46.800Z,40.16
2023-04-17T13:39:15.392Z,39.74
2023-04-17T13:41:43.799Z,40.42
2023-04-17T13:44:13.839Z,39.88
2023-04-17T13:46:42.232Z,39.39
2023-04-17T13:49:12.088Z,39.69
2023-04-17T13:51:40.900Z,39.69
2023-04-17T13:54:10.411Z,38.52
2023-04-17T13:56:39.489Z,37.13
2023-04-17T13:59:08.275Z,36.15
2023-04-17T14:01:36.945Z,35.72
2023-04-17T14:04:05.438Z,36.59
2023-04-17T14:06:35.272Z,37.39
2023-04-17T14:09:03.744Z,37.35
2023-04-17T14:11:32.431Z,37.45
2023-04-17T14:14:01.018Z,37.34
2023-04-17T14:16:29.836Z,37.54
2023-04-17T14:19:06.407Z,37.42
2023-04-17T14:21:41.831Z,37.12
2023-04-17T14:24:10.306Z,37.20
2023-04-17T14:26:40.092Z,36.81
2023-04-17T14:29:11.056Z,36.28
2023-04-17T14:31:39.614Z,36.02
2023-04-17T14:34:08.025Z,36.57
2023-04-17T14:36:36.508Z,36.22
2023-04-17T14:39:08.577Z,35.99
2023-04-17T14:41:37.216Z,36.50
2023-04-17T14:44:05.870Z,35.71
2023-04-17T14:46:34.646Z,35.30
2023-04-17T14:49:03.536Z,35.02
2023-04-17T14:51:32.546Z,35.66
2023-04-17T14:54:01.441Z,36.36
2023-04-17T14:56:30.207Z,35.08
2023-04-17T14:58:58.691Z,35.47
2023-04-17T15:01:27.140Z,35.54
2023-04-17T15:03:56.146Z,35.88
2023-04-17T15:06:24.754Z,36.16
2023-04-17T15:08:53.341Z,36.29
2023-04-17T15:11:21.825Z,36.79
2023-04-17T15:13:50.510Z,37.60
2023-04-17T15:16:19.053Z,37.30
2023-04-17T15:18:47.577Z,37.89
2023-04-17T15:21:16.572Z,38.41
2023-04-17T15:23:45.157Z,38.49
2023-04-17T15:26:13.763Z,38.68
2023-04-17T15:28:42.338Z,39.32
2023-04-17T15:31:10.716Z,39.78
2023-04-17T15:33:39.206Z,40.07
2023-04-17T15:36:07.683Z,40.26
2023-04-17T15:38:36.570Z,40.18
2023-04-17T15:41:05.672Z,40.15
2023-04-17T15:43:34.051Z,40.36
2023-04-17T15:46:03.732Z,40.48
2023-04-17T15:48:32.347Z,40.51
2023-04-17T15:51:03.079Z,40.69
2023-04-17T15:53:32.046Z,40.80
2023-04-17T15:56:00.968Z,40.55
2023-04-17T15:58:29.754Z,40.70
2023-04-17T16:00:58.237Z,40.99
2023-04-17T16:03:26.970Z,41.28
2023-04-17T16:05:55.614Z,41.15
2023-04-17T16:08:23.993Z,41.10
2023-04-17T16:10:52.678Z,41.03
2023-04-17T16:13:21.572Z,41.54
2023-04-17T16:15:50.815Z,41.55
2023-04-17T16:18:19.252Z,41.83
2023-04-17T16:20:47.735Z,42.06
2023-04-17T16:23:16.216Z,42.14
2023-04-17T16:25:44.708Z,42.39
2023-04-17T16:28:13.076Z,42.43
2023-04-17T16:30:41.560Z,42.73
2023-04-17T16:33:10.046Z,42.85
2023-04-17T16:35:38.732Z,43.20
2023-04-17T16:38:07.229Z,43.06
2023-04-17T16:40:36.105Z,43.21
2023-04-17T16:43:04.484Z,43.38
2023-04-17T16:45:33.169Z,43.47
2023-04-17T16:48:01.687Z,43.78
2023-04-17T16:50:31.056Z,44.02
2023-04-17T16:52:59.643Z,44.27
2023-04-17T16:55:28.121Z,44.11
2023-04-17T16:57:57.629Z,44.23
2023-04-17T17:00:26.521Z,44.45
2023-04-17T17:02:55.121Z,44.53
2023-04-17T17:05:24.527Z,44.58
2023-04-17T17:07:53.303Z,44.72
2023-04-17T17:10:21.575Z,44.87
2023-04-17T17:12:49.960Z,45.01
2023-04-17T17:15:20.723Z,45.08
2023-04-17T17:17:49.839Z,45.22
2023-04-17T17:20:19.398Z,45.44
2023-04-17T17:22:47.791Z,45.65
2023-04-17T17:28:14.745Z,46.00
2023-04-17T17:30:44.163Z,45.97
2023-04-17T17:33:12.714Z,46.20
2023-04-17T17:35:41.218Z,46.26
2023-04-17T17:38:10.949Z,46.15
2023-04-17T17:40:40.548Z,46.34
2023-04-17T17:43:08.962Z,46.49
2023-04-17T17:45:37.316Z,46.53
2023-04-17T17:48:06.293Z,46.37
2023-04-17T17:50:34.883Z,46.71
2023-04-17T17:53:04.312Z,46.47
2023-04-17T17:55:37.688Z,46.72
2023-04-17T17:58:07.037Z,46.82
2023-04-17T18:00:36.182Z,47.02
2023-04-17T18:03:04.839Z,47.00
2023-04-17T18:05:33.974Z,47.27
2023-04-17T18:08:02.559Z,47.50
2023-04-17T18:10:33.693Z,47.44
2023-04-17T18:13:03.445Z,47.48
2023-04-17T18:15:31.825Z,47.57
2023-04-17T18:18:00.766Z,47.57
2023-04-17T18:20:29.367Z,47.67
2023-04-17T18:22:58.061Z,47.71
2023-04-17T18:25:26.637Z,47.45
2023-04-17T18:27:54.917Z,47.62
2023-04-17T18:30:23.293Z,47.55
2023-04-17T18:32:52.054Z,47.62
2023-04-17T18:35:20.675Z,47.32
2023-04-17T18:37:49.159Z,47.66
2023-04-17T18:40:17.738Z,47.72
2023-04-17T18:42:46.217Z,47.59
2023-04-17T18:45:16.261Z,47.45
2023-04-17T18:47:44.855Z,47.58
2023-04-17T18:50:13.311Z,47.71
2023-04-17T18:52:45.074Z,47.73
2023-04-17T18:55:17.857Z,47.60
2023-04-17T18:57:47.051Z,47.60
2023-04-17T19:00:16.141Z,48.00
2023-04-17T19:02:44.943Z,47.99
2023-04-17T19:05:13.899Z,48.11
2023-04-17T19:07:42.405Z,48.06
2023-04-17T19:10:11.399Z,48.15
2023-04-17T19:12:39.800Z,48.43
2023-04-17T19:15:10.049Z,48.49
2023-04-17T19:17:38.644Z,48.38
2023-04-17T19:20:08.068Z,48.32
2023-04-17T19:22:36.680Z,48.41
2023-04-17T19:25:05.775Z,48.39
2023-04-17T19:27:35.200Z,48.49
2023-04-17T19:30:04.392Z,48.44
2023-04-17T19:32:33.379Z,48.45
2023-04-17T19:35:01.918Z,48.62
2023-04-17T19:37:30.740Z,48.60
2023-04-17T19:39:59.325Z,48.36
2023-04-17T19:42:29.166Z,48.44
2023-04-17T19:44:57.516Z,48.62
2023-04-17T19:47:26.383Z,48.39
2023-04-17T19:49:54.994Z,48.58
2023-04-17T19:52:23.881Z,48.65
2023-04-17T19:54:52.264Z,48.70
2023-04-17T19:57:20.646Z,48.53
2023-04-17T19:59:49.018Z,48.49
2023-04-17T20:02:21.535Z,48.82
2023-04-17T20:04:49.993Z,48.78
2023-04-17T20:07:18.357Z,48.78
2023-04-17T20:09:46.741Z,48.82
2023-04-17T20:12:15.118Z,49.17
2023-04-17T20:14:43.598Z,49.04
2023-04-17T20:17:12.113Z,49.23
2023-04-17T20:19:41.174Z,49.11
2023-04-17T20:22:09.656Z,49.29
2023-04-17T20:24:38.047Z,49.87
2023-04-17T20:27:06.929Z,49.90
2023-04-17T20:29:35.617Z,49.54
2023-04-17T20:32:04.204Z,49.82
2023-04-17T20:34:35.344Z,49.86
2023-04-17T20:37:03.721Z,49.88
2023-04-17T20:39:32.817Z,49.86
2023-04-17T20:42:02.228Z,49.84
2023-04-17T20:44:32.240Z,50.11
2023-04-17T20:47:01.129Z,49.97
2023-04-17T20:49:30.221Z,50.04
2023-04-17T20:51:59.628Z,50.12
2023-04-17T20:54:28.725Z,50.14
2023-04-17T20:56:57.411Z,49.87
2023-04-17T20:59:26.102Z,49.94
2023-04-17T21:01:54.659Z,50.06
2023-04-17T21:04:23.368Z,50.18
2023-04-17T21:06:52.055Z,50.27
2023-04-17T21:09:20.741Z,50.32
2023-04-17T21:11:49.937Z,50.29
2023-04-17T21:14:19.038Z,50.23
2023-04-17T21:16:47.415Z,50.24
2023-04-17T21:19:15.907Z,50.02
2023-04-17T21:21:44.289Z,50.10
2023-04-17T21:24:12.948Z,50.26
2023-04-17T21:26:41.549Z,50.49
2023-04-17T21:29:09.927Z,50.38
2023-04-17T21:31:38.595Z,50.39
2023-04-17T21:34:07.108Z,50.76
2023-04-17T21:36:35.683Z,50.72
2023-04-17T21:39:04.054Z,50.69
2023-04-17T21:41:32.641Z,50.88
2023-04-17T21:44:02.871Z,50.77
2023-04-17T21:46:32.167Z,50.51
2023-04-17T21:49:01.165Z,50.63
2023-04-17T21:51:29.641Z,50.66
2023-04-17T21:53:58.028Z,50.66
2023-04-17T21:56:26.515Z,50.77
2023-04-17T21:58:54.881Z,50.59
2023-04-17T22:01:23.760Z,50.72
2023-04-17T22:03:52.680Z,51.03
2023-04-17T22:06:21.048Z,50.84
2023-04-17T22:08:49.427Z,50.89
2023-04-17T22:11:18.019Z,50.87
2023-04-17T22:13:47.311Z,50.82
2023-04-17T22:16:16.146Z,51.17
2023-04-17T22:18:44.598Z,51.31
2023-04-17T22:21:13.430Z,51.45
2023-04-17T22:23:41.756Z,51.46
2023-04-17T22:26:10.090Z,51.69
2023-04-17T22:28:39.846Z,51.63
2023-04-17T22:31:08.389Z,51.39
2023-04-17T22:33:36.810Z,51.54
2023-04-17T22:36:05.495Z,51.58
2023-04-17T22:38:34.080Z,51.47
2023-04-17T22:41:04.096Z,51.82
2023-04-17T22:43:33.093Z,51.46
2023-04-17T22:46:01.832Z,51.27
2023-04-17T22:48:30.463Z,51.41
2023-04-17T22:50:58.846Z,51.76
2023-04-17T22:53:27.940Z,51.66
2023-04-17T22:56:03.205Z,51.56
2023-04-17T22:58:33.183Z,51.53
2023-04-17T23:01:01.583Z,51.52
2023-04-17T23:03:30.414Z,51.52
2023-04-17T23:05:58.744Z,51.33
2023-04-17T23:08:27.854Z,51.44
2023-04-17T23:10:59.292Z,51.35
2023-04-17T23:13:28.198Z,51.37
2023-04-17T23:15:56.619Z,51.39
2023-04-17T23:18:25.254Z,51.32
2023-04-17T23:20:53.841Z,51.67
2023-04-17T23:23:22.525Z,51.71
2023-04-17T23:25:51.412Z,51.69
2023-04-17T23:28:20.204Z,51.28
2023-04-17T23:30:48.589Z,51.34
2023-04-17T23:33:17.372Z,51.49
2023-04-17T23:35:45.855Z,51.53
2023-04-17T23:38:14.349Z,51.55
2023-04-17T23:40:42.926Z,51.49
2023-04-17T23:43:11.205Z,51.61
2023-04-17T23:45:39.790Z,51.63
2023-04-17T23:48:08.483Z,51.70
2023-04-17T23:50:36.860Z,51.70
2023-04-17T23:53:07.189Z,51.73
2023-04-17T23:55:35.566Z,51.62
2023-04-17T23:58:03.945Z,51.54
